createdAt,value
2023-09-17T05:32:58.549Z,51.111282
2023-09-17T09:06:43.176Z,51.111275
2023-09-17T09:07:43.025Z,51.111267
2023-09-17T09:08:42.625Z,51.111256
2023-09-17T09:09:42.606Z,51.111282
2023-09-17T09:10:42.640Z,51.111271
2023-09-17T09:11:42.526Z,51.111267
2023-09-17T09:12:42.591Z,51.111279
2023-09-17T09:13:42.655Z,51.111252
2023-09-17T09:14:42.643Z,51.111248
2023-09-17T09:15:42.767Z,51.111233
2023-09-17T09:17:16.327Z,51.111225
2023-09-17T09:17:42.863Z,51.111225
2023-09-17T09:18:43.549Z,51.111221
2023-09-17T09:19:42.661Z,51.111217
2023-09-17T11:55:32.264Z,51.111298
2023-09-17T14:28:10.062Z,51.111370
2023-09-17T14:29:09.580Z,51.111305
2023-09-17T14:30:09.802Z,51.111279
2023-09-17T14:31:09.596Z,51.111294
2023-09-17T14:32:09.589Z,51.111298
2023-09-17T14:33:09.016Z,51.111290
2023-09-17T14:34:09.509Z,51.111271
2023-09-17T14:35:10.001Z,51.111240
2023-09-17T14:36:08.836Z,51.111263
2023-09-17T14:37:08.713Z,51.111290
2023-09-17T14:38:09.190Z,51.111267
2023-09-17T14:39:11.594Z,51.111252
2023-09-17T14:40:09.673Z,51.111237
2023-09-17T14:41:08.582Z,51.111252
2023-09-17T14:42:09.176Z,51.111259
2023-09-17T14:43:08.702Z,51.111267
2023-09-17T14:44:09.000Z,51.111290
2023-09-17T14:45:08.957Z,51.111305
2023-09-17T14:46:10.245Z,51.111282
2023-09-17T14:47:08.709Z,51.111275
2023-09-17T14:48:11.146Z,51.111290
2023-09-17T14:49:08.919Z,51.111286
2023-09-17T14:50:09.651Z,51.111301
2023-09-17T14:51:08.467Z,51.111279
2023-09-17T14:52:08.790Z,51.111294
2023-09-17T14:53:08.551Z,51.111286
2023-09-17T14:54:08.725Z,51.111279
2023-09-17T14:55:08.541Z,51.111275
2023-09-17T14:56:08.959Z,51.111290
2023-09-17T14:57:08.451Z,51.111298
2023-09-17T14:58:10.785Z,51.111290
2023-09-17T14:59:08.611Z,51.111286
2023-09-17T15:00:08.593Z,51.111275
2023-09-17T15:01:11.862Z,51.111279
2023-09-17T15:02:11.092Z,51.111282
2023-09-17T15:03:09.553Z,51.111286
2023-09-17T15:04:09.199Z,51.111305
2023-09-17T15:05:08.686Z,51.111309
2023-09-17T15:06:08.539Z,51.111290
2023-09-17T15:07:08.322Z,51.111279
2023-09-17T15:08:09.352Z,51.111301
2023-09-17T15:09:08.397Z,51.111259
2023-09-17T15:10:09.684Z,51.111225
2023-09-17T15:11:08.721Z,51.111290
2023-09-17T15:12:08.776Z,51.111317
2023-09-17T15:13:08.615Z,51.111259
2023-09-17T15:14:08.313Z,51.111286
2023-09-17T15:15:09.027Z,51.111305
2023-09-17T15:16:08.447Z,51.111290
2023-09-17T15:17:08.773Z,51.111256
2023-09-17T15:18:08.616Z,51.111259
2023-09-17T15:19:08.465Z,51.111271
2023-09-17T15:20:08.622Z,51.111286
2023-09-17T15:21:08.589Z,51.111279
2023-09-17T15:22:08.371Z,51.111252
2023-09-17T15:23:08.422Z,51.111248
2023-09-17T15:24:08.438Z,51.111256
2023-09-17T15:25:08.695Z,51.111301
2023-09-17T15:26:08.715Z,51.111294
2023-09-17T15:27:08.802Z,51.111263
2023-09-17T15:33:28.039Z,51.111294
2023-09-17T15:34:26.426Z,51.111240
2023-09-17T15:35:25.672Z,51.111252
2023-09-17T15:36:25.426Z,51.111275
2023-09-17T15:43:34.637Z,51.111572
2023-09-17T15:44:34.998Z,51.111572
2023-09-17T15:45:34.325Z,51.111378
2023-09-17T15:46:34.389Z,51.111401
2023-09-17T15:47:34.350Z,51.111366
2023-09-17T15:48:34.149Z,51.111454
2023-09-17T15:49:34.388Z,51.111328
2023-09-17T15:55:23.643Z,51.111252
2023-09-17T15:56:23.717Z,51.111279
2023-09-17T15:57:22.841Z,51.111282
2023-09-17T15:58:22.998Z,51.111271
2023-09-17T15:59:23.583Z,51.111263
2023-09-17T16:00:23.510Z,51.111263
2023-09-17T16:01:23.559Z,51.111271
2023-09-17T16:02:24.601Z,51.111282
2023-09-17T16:03:24.171Z,51.111275
2023-09-17T16:04:24.366Z,51.111275
2023-09-17T16:05:23.154Z,51.111252
2023-09-17T16:06:25.096Z,51.111240
2023-09-17T16:07:24.215Z,51.111225
2023-09-17T16:09:00.518Z,51.111248
2023-09-17T16:09:24.054Z,51.111237
2023-09-17T16:18:13.329Z,51.111282
2023-09-17T16:19:13.439Z,51.111279
2023-09-17T16:20:13.547Z,51.111298
2023-09-17T16:21:13.056Z,51.111290
2023-09-17T16:22:12.957Z,51.111282
2023-09-17T17:39:56.829Z,51.111248
2023-09-17T17:47:34.703Z,51.111248
2023-09-17T17:48:32.247Z,51.111240
2023-09-17T17:49:30.594Z,51.111237
2023-09-17T17:50:31.327Z,51.111233
2023-09-17T17:51:30.355Z,51.111233
2023-09-17T17:52:30.210Z,51.111206
2023-09-17T17:53:30.686Z,51.111233
2023-09-17T17:54:30.128Z,51.111240
2023-09-17T17:55:29.520Z,51.111206
2023-09-17T17:56:31.011Z,51.111214
2023-09-17T17:57:29.825Z,51.111229
2023-09-17T17:58:30.596Z,51.111229
2023-09-17T17:59:30.467Z,51.111240
2023-09-17T18:00:29.605Z,51.111252
2023-09-17T18:01:30.997Z,51.111248
2023-09-17T18:02:29.912Z,51.111263
2023-09-17T18:03:30.264Z,51.111259
2023-09-17T18:04:30.267Z,51.111263
2023-09-17T18:05:30.058Z,51.111282
2023-09-17T18:06:29.895Z,51.111294
2023-09-17T18:17:49.868Z,51.111301
2023-09-17T18:18:48.511Z,51.111328
2023-09-17T18:26:28.935Z,51.111267
2023-09-17T18:27:28.522Z,51.111263
2023-09-17T18:28:28.636Z,51.111259
2023-09-17T18:29:29.056Z,51.111259
2023-09-17T18:30:28.470Z,51.111263
2023-09-17T18:31:28.473Z,51.111252
2023-09-17T18:32:28.429Z,51.111267
2023-09-17T18:33:29.975Z,51.111263
2023-09-17T18:34:28.465Z,51.111267
2023-09-17T18:35:28.565Z,51.111263
2023-09-17T18:36:28.202Z,51.111263
2023-09-17T18:37:31.013Z,51.111286
2023-09-17T18:38:28.362Z,51.111301
2023-09-17T18:39:28.650Z,51.111286
2023-09-17T18:40:28.252Z,51.111248
2023-09-17T18:41:28.128Z,51.111229
2023-09-17T18:42:28.294Z,51.111237
2023-09-17T18:43:28.333Z,51.111244
2023-09-17T18:44:28.200Z,51.111244
2023-09-17T18:45:28.136Z,51.111252
2023-09-17T18:46:28.391Z,51.111271
2023-09-17T18:47:28.922Z,51.111263
2023-09-17T18:48:29.176Z,51.111271
2023-09-17T18:49:29.446Z,51.111279
2023-09-17T18:50:28.125Z,51.111217
2023-09-17T18:51:28.505Z,51.111195
2023-09-17T18:52:28.299Z,51.111221
2023-09-17T18:53:28.962Z,51.111248
2023-09-17T18:54:29.116Z,51.111259
2023-09-17T18:55:28.279Z,51.111252
2023-09-17T18:56:28.165Z,51.111221
2023-09-17T18:57:28.078Z,51.111221
2023-09-17T18:58:27.933Z,51.111221
2023-09-17T19:04:01.929Z,51.111229
2023-09-17T19:09:14.724Z,51.111244
2023-09-17T19:10:15.254Z,51.111233
2023-09-17T19:34:53.929Z,51.111088
2023-09-17T19:35:22.358Z,51.111107
2023-09-17T19:36:20.384Z,51.111080
2023-09-17T20:30:24.634Z,51.111233
2023-09-17T20:40:18.927Z,51.111217
2023-09-17T20:41:17.737Z,51.111217
2023-09-17T22:12:34.165Z,51.111309
